Time;durP1;ratioP1;P1;durP2;ratioP2;P2;SDS_P1;SDS_P2;PMS_P1;PMS_P2;Temp;Humidity;BMP_temperature;BMP_pressure;BME280_temperature;BME280_humidity;BME280_pressure;Samples;Min_cycle;Max_cycle;Signal;HPM_P1;HPM_P2
2022/01/29 00:01:09;;;;;;;;;;;;;;;1.46;61.62;95713.88;5074617;28;1056;-49
2022/01/29 00:03:36;;;;;;;;;;;;;;;1.53;60.28;95704.66;5074450;28;1053;-49
2022/01/29 00:06:02;;;;;;;;;;;;;;;1.44;60.80;95697.31;5074514;28;1092;-49
2022/01/29 00:08:28;;;;;;;;;;;;;;;1.39;61.06;95702.88;5074243;28;1008;-48
2022/01/29 00:11:01;;;;;;;;;;;;;;;1.36;62.43;95703.88;5074407;28;1041;-49
2022/01/29 00:13:27;;;;;;;;;;;;;;;1.26;62.68;95697.47;5074199;28;1902;-48
2022/01/29 00:15:53;;;;;;;;;;;;;;;1.33;61.90;95705.88;5074538;28;1052;-49
2022/01/29 00:18:19;;;;;;;;;;;;;;;1.21;62.43;95704.78;5074415;28;965;-49
2022/01/29 00:20:45;;;;;;;;;;;;;;;1.04;62.62;95704.94;5074229;28;1057;-49
2022/01/29 00:23:11;;;;;;;;;;;;;;;1.19;61.03;95713.72;5073971;28;997;-48
2022/01/29 00:25:37;;;;;;;;;;;;;;;1.28;61.04;95711.41;5073544;28;977;-48
2022/01/29 00:28:03;;;;;;;;;;;;;;;1.44;60.13;95706.09;5073870;28;977;-49
2022/01/29 00:30:38;;;;;;;;;;;;;;;1.31;61.47;95715.63;5074227;28;1025;-49
2022/01/29 00:33:04;;;;;;;;;;;;;;;1.16;63.07;95712.13;5073973;28;1902;-49
2022/01/29 00:35:30;;;;;;;;;;;;;;;1.06;63.81;95710.97;5073974;28;1147;-49
2022/01/29 00:37:57;;;;;;;;;;;;;;;1.04;63.90;95702.31;5073702;28;1051;-49
2022/01/29 00:43:44;;;;;;;;;;;;;;;1.11;63.63;95704.50;5073887;28;776;-49
2022/01/29 00:46:10;;;;;;;;;;;;;;;1.06;64.13;95708.31;5074080;28;1070;-49
2022/01/29 00:48:36;;;;;;;;;;;;;;;1.06;63.81;95703.06;5073795;28;1009;-49
2022/01/29 00:51:02;;;;;;;;;;;;;;;1.17;63.34;95706.75;5073978;28;981;-49
2022/01/29 00:53:28;;;;;;;;;;;;;;;1.20;62.76;95713.66;5073626;28;1931;-49
2022/01/29 00:55:54;;;;;;;;;;;;;;;1.36;61.98;95718.84;5073604;28;1053;-49
2022/01/29 00:58:20;;;;;;;;;;;;;;;1.30;62.98;95716.59;5073200;28;1958;-49
2022/01/29 01:00:47;;;;;;;;;;;;;;;1.33;62.44;95714.63;5073463;28;1207;-49
2022/01/29 01:03:13;;;;;;;;;;;;;;;1.33;62.74;95701.44;5073324;28;977;-49
2022/01/29 01:05:38;;;;;;;;;;;;;;;1.34;63.06;95700.47;5073503;28;945;-49
2022/01/29 01:08:07;;;;;;;;;;;;;;;1.45;61.96;95696.38;5073251;28;1101;-49
2022/01/29 01:10:33;;;;;;;;;;;;;;;1.39;62.10;95702.03;5073458;28;1100;-49
2022/01/29 01:12:59;;;;;;;;;;;;;;;1.33;61.93;95704.06;5073500;28;1983;-48
2022/01/29 01:15:25;;;;;;;;;;;;;;;1.29;61.55;95707.84;5073403;28;1060;-49
2022/01/29 01:17:51;;;;;;;;;;;;;;;1.38;61.34;95718.75;5073234;28;969;-48
2022/01/29 01:20:17;;;;;;;;;;;;;;;1.31;61.77;95715.63;5072428;28;969;-49
2022/01/29 01:22:43;;;;;;;;;;;;;;;1.22;62.12;95710.94;5073087;28;1159;-48
2022/01/29 01:25:10;;;;;;;;;;;;;;;1.10;62.34;95720.38;5073287;28;1038;-49
2022/01/29 01:27:36;;;;;;;;;;;;;;;1.24;61.72;95707.25;5073235;28;1069;-49
2022/01/29 01:30:03;;;;;;;;;;;;;;;1.24;61.88;95707.25;5073316;28;1016;-49
2022/01/29 01:32:29;;;;;;;;;;;;;;;1.21;61.53;95699.53;5073246;28;1914;-49
2022/01/29 01:35:05;;;;;;;;;;;;;;;1.25;62.78;95701.06;5073461;28;1061;-48
2022/01/29 01:37:37;;;;;;;;;;;;;;;1.03;64.12;95705.88;5074446;28;1149;-48
2022/01/29 01:40:04;;;;;;;;;;;;;;;0.90;64.23;95703.97;5077492;28;1032;-49
2022/01/29 01:42:30;;;;;;;;;;;;;;;1.05;63.84;95706.66;5077221;28;1049;-49
2022/01/29 01:44:56;;;;;;;;;;;;;;;1.11;63.02;95691.31;5077117;28;1057;-49
2022/01/29 01:47:23;;;;;;;;;;;;;;;1.20;62.66;95692.56;5077375;28;1137;-49
2022/01/29 01:49:49;;;;;;;;;;;;;;;1.46;61.60;95691.03;5077233;28;1054;-49
2022/01/29 01:52:15;;;;;;;;;;;;;;;1.52;61.29;95692.44;5076796;28;1913;-48
2022/01/29 01:54:42;;;;;;;;;;;;;;;1.49;62.46;95690.81;5077053;28;1076;-49
2022/01/29 01:57:08;;;;;;;;;;;;;;;1.52;61.90;95697.72;5076795;28;1048;-48
2022/01/29 01:59:34;;;;;;;;;;;;;;;1.56;61.37;95694.78;5076831;28;1164;-49
2022/01/29 02:02:01;;;;;;;;;;;;;;;1.50;61.56;95696.94;5076792;28;1166;-49
2022/01/29 02:04:27;;;;;;;;;;;;;;;1.34;61.83;95702.28;5076881;28;1005;-49
2022/01/29 02:06:54;;;;;;;;;;;;;;;1.29;62.81;95702.56;5077059;28;977;-48
2022/01/29 02:09:22;;;;;;;;;;;;;;;1.29;62.44;95691.16;5076728;28;989;-48
2022/01/29 02:12:00;;;;;;;;;;;;;;;1.28;62.48;95689.47;5076782;28;1980;-48
2022/01/29 02:14:30;;;;;;;;;;;;;;;1.26;62.94;95694.84;5076762;28;1905;-48
2022/01/29 02:16:56;;;;;;;;;;;;;;;1.12;63.87;95694.78;5076649;28;846;-49
2022/01/29 02:19:23;;;;;;;;;;;;;;;1.07;63.59;95697.72;5076365;28;1045;-49
2022/01/29 02:21:49;;;;;;;;;;;;;;;1.16;62.21;95697.16;5076495;28;1891;-48
2022/01/29 02:24:14;;;;;;;;;;;;;;;1.20;63.00;95697.00;5076406;28;1250;-48
2022/01/29 02:26:41;;;;;;;;;;;;;;;1.13;64.29;95699.13;5076405;28;1032;-49
2022/01/29 02:29:07;;;;;;;;;;;;;;;1.04;64.69;95700.50;5076277;28;1053;-49
2022/01/29 02:31:33;;;;;;;;;;;;;;;1.11;64.58;95706.28;5076703;28;1024;-49
2022/01/29 02:33:59;;;;;;;;;;;;;;;1.09;64.22;95695.81;5076319;28;1910;-48
2022/01/29 02:36:25;;;;;;;;;;;;;;;1.22;63.73;95698.59;5076050;28;1859;-49
2022/01/29 02:38:51;;;;;;;;;;;;;;;1.30;63.18;95695.50;5076195;28;970;-48
2022/01/29 02:41:18;;;;;;;;;;;;;;;1.29;63.19;95697.31;5076417;28;1044;-49
2022/01/29 02:43:50;;;;;;;;;;;;;;;1.27;63.73;95693.91;5075151;28;1055;-49
2022/01/29 02:48:42;;;;;;;;;;;;;;;0.93;64.37;95701.16;5075381;28;1048;-49
2022/01/29 02:51:09;;;;;;;;;;;;;;;0.89;64.48;95701.41;5075745;28;1093;-48
2022/01/29 02:53:35;;;;;;;;;;;;;;;1.01;64.55;95703.34;5075992;28;1914;-48
2022/01/29 02:56:01;;;;;;;;;;;;;;;1.01;65.61;95710.41;5075745;28;1033;-48
2022/01/29 02:58:27;;;;;;;;;;;;;;;1.00;65.96;95703.44;5075881;28;977;-48
2022/01/29 03:00:53;;;;;;;;;;;;;;;1.02;65.35;95701.56;5075688;28;1322;-49
2022/01/29 03:03:19;;;;;;;;;;;;;;;1.01;66.11;95700.72;5075703;28;1062;-48
2022/01/29 03:05:45;;;;;;;;;;;;;;;0.99;65.08;95702.59;5075522;28;1049;-49
2022/01/29 03:08:11;;;;;;;;;;;;;;;1.09;64.39;95695.81;5075640;28;969;-48
2022/01/29 03:10:38;;;;;;;;;;;;;;;1.03;65.28;95692.72;5075379;28;1116;-48
2022/01/29 03:13:04;;;;;;;;;;;;;;;1.03;65.06;95695.34;5075798;28;1997;-49
2022/01/29 03:15:30;;;;;;;;;;;;;;;1.11;64.36;95695.75;5075603;28;1049;-49
2022/01/29 03:17:56;;;;;;;;;;;;;;;1.06;65.39;95701.25;5075716;28;969;-49
2022/01/29 03:20:23;;;;;;;;;;;;;;;0.97;65.65;95700.03;5075302;28;1093;-49
2022/01/29 03:22:49;;;;;;;;;;;;;;;1.13;64.50;95697.34;5075396;28;1046;-49
2022/01/29 03:25:16;;;;;;;;;;;;;;;1.27;63.99;95701.81;5075209;28;1044;-49
2022/01/29 03:27:42;;;;;;;;;;;;;;;1.09;64.58;95703.72;5075434;28;1045;-49
2022/01/29 03:30:09;;;;;;;;;;;;;;;0.90;65.52;95698.69;5075054;28;1108;-49
2022/01/29 03:32:35;;;;;;;;;;;;;;;0.78;65.74;95700.25;5075209;28;1902;-48
2022/01/29 03:35:01;;;;;;;;;;;;;;;0.77;65.84;95700.34;5075137;28;969;-48
2022/01/29 03:37:27;;;;;;;;;;;;;;;0.76;65.65;95702.13;5068065;28;1841;-49
2022/01/29 03:39:58;;;;;;;;;;;;;;;0.85;65.31;95700.72;5055234;28;1013;-48
2022/01/29 03:42:24;;;;;;;;;;;;;;;0.76;66.26;95688.97;5065675;28;1203;-49
2022/01/29 03:44:50;;;;;;;;;;;;;;;0.75;66.08;95697.78;5075072;28;1653;-49
2022/01/29 03:47:16;;;;;;;;;;;;;;;0.75;65.91;95687.25;5074868;28;1999;-49
2022/01/29 03:49:42;;;;;;;;;;;;;;;0.73;66.14;95693.56;5075014;28;1044;-48
2022/01/29 03:52:08;;;;;;;;;;;;;;;0.73;65.53;95694.41;5074830;28;1577;-49
2022/01/29 03:54:34;;;;;;;;;;;;;;;0.81;65.93;95693.94;5074961;28;1914;-48
2022/01/29 03:57:00;;;;;;;;;;;;;;;0.74;66.02;95684.72;5074859;28;1058;-49
2022/01/29 03:59:26;;;;;;;;;;;;;;;0.64;66.27;95687.03;5074407;28;1096;-49
2022/01/29 04:01:52;;;;;;;;;;;;;;;0.58;66.79;95690.84;5074397;28;1396;-49
2022/01/29 04:04:18;;;;;;;;;;;;;;;0.69;66.10;95687.63;5074652;28;1059;-49
2022/01/29 04:06:44;;;;;;;;;;;;;;;0.75;65.60;95697.78;5074409;28;1887;-48
2022/01/29 04:09:11;;;;;;;;;;;;;;;0.53;65.90;95703.44;5074463;28;1029;-49
2022/01/29 04:11:39;;;;;;;;;;;;;;;0.44;66.34;95701.31;5074517;28;1001;-48
2022/01/29 04:14:14;;;;;;;;;;;;;;;0.25;66.80;95698.88;5074398;28;1983;-48
2022/01/29 04:16:40;;;;;;;;;;;;;;;0.32;66.60;95694.09;5074289;28;1029;-49
2022/01/29 04:19:06;;;;;;;;;;;;;;;0.27;67.27;95690.91;5074612;28;1013;-48
2022/01/29 04:21:32;;;;;;;;;;;;;;;0.30;66.95;95695.97;5074077;28;993;-48
2022/01/29 04:23:58;;;;;;;;;;;;;;;0.25;66.80;95698.88;5074157;28;1112;-48
2022/01/29 04:26:24;;;;;;;;;;;;;;;0.24;66.78;95706.84;5072452;28;1714;-49
2022/01/29 04:28:51;;;;;;;;;;;;;;;0.25;66.81;95709.38;5074197;28;993;-49
2022/01/29 04:31:20;;;;;;;;;;;;;;;0.34;66.68;95713.28;5073871;28;1191;-49
2022/01/29 04:33:46;;;;;;;;;;;;;;;0.42;66.00;95711.09;5061246;28;2960;-49
2022/01/29 04:36:12;;;;;;;;;;;;;;;0.43;65.94;95714.56;5061227;28;1209;-49
2022/01/29 04:38:38;;;;;;;;;;;;;;;0.27;66.27;95707.53;5073467;28;1861;-49
2022/01/29 04:41:05;;;;;;;;;;;;;;;0.27;66.10;95706.69;5073649;28;1039;-48
2022/01/29 04:43:32;;;;;;;;;;;;;;;0.11;66.74;95717.19;5073768;28;1263;-48
2022/01/29 04:45:59;;;;;;;;;;;;;;;-0.01;66.99;95716.91;5073815;28;1059;-49
2022/01/29 04:48:25;;;;;;;;;;;;;;;-0.01;66.78;95719.53;5073777;28;1048;-48
2022/01/29 04:50:51;;;;;;;;;;;;;;;-0.11;67.21;95720.97;5073836;28;1068;-48
2022/01/29 04:53:17;;;;;;;;;;;;;;;-0.15;66.95;95723.84;5073513;28;2057;-48
2022/01/29 04:55:44;;;;;;;;;;;;;;;-0.10;66.99;95721.81;5073941;28;1055;-49
2022/01/29 04:58:10;;;;;;;;;;;;;;;-0.10;66.80;95720.03;5073608;28;1008;-49
2022/01/29 05:00:36;;;;;;;;;;;;;;;0.09;66.71;95719.88;5073701;28;1322;-49
2022/01/29 05:03:06;;;;;;;;;;;;;;;0.14;66.33;95724.91;5073472;28;1037;-49
2022/01/29 05:05:32;;;;;;;;;;;;;;;0.16;66.50;95717.78;5073457;28;1057;-48
2022/01/29 05:07:58;;;;;;;;;;;;;;;0.18;66.35;95721.19;5073622;28;977;-49
2022/01/29 05:10:24;;;;;;;;;;;;;;;0.32;65.68;95717.78;5073370;28;1077;-49
2022/01/29 05:12:59;;;;;;;;;;;;;;;0.24;66.06;95717.34;5072858;28;1916;-49
2022/01/29 05:28:55;;;;;;;;;;;;;;;-0.02;66.92;95735.38;5073155;28;1116;-49
2022/01/29 05:31:21;;;;;;;;;;;;;;;0.07;66.96;95729.63;5073268;28;1047;-48
2022/01/29 05:33:47;;;;;;;;;;;;;;;0.11;67.19;95736.41;5073321;28;1910;-48
2022/01/29 05:36:13;;;;;;;;;;;;;;;0.14;66.88;95738.91;5073064;28;1197;-49
2022/01/29 05:38:39;;;;;;;;;;;;;;;0.13;67.02;95733.72;5073081;28;1045;-49
2022/01/29 05:41:06;;;;;;;;;;;;;;;0.12;67.13;95735.50;5073114;28;1112;-48
2022/01/29 05:43:32;;;;;;;;;;;;;;;0.01;67.46;95731.75;5073349;28;1048;-48
2022/01/29 05:45:58;;;;;;;;;;;;;;;-0.20;68.32;95737.22;5073167;28;1061;-48
2022/01/29 05:48:24;;;;;;;;;;;;;;;-0.22;68.73;95739.09;5073010;28;1045;-48
2022/01/29 05:50:50;;;;;;;;;;;;;;;-0.09;68.41;95739.31;5072999;28;938;-48
2022/01/29 05:53:16;;;;;;;;;;;;;;;-0.04;68.17;95739.88;5072826;28;1910;-48
2022/01/29 05:55:42;;;;;;;;;;;;;;;0.06;67.56;95746.38;5073107;28;1008;-49
2022/01/29 05:58:08;;;;;;;;;;;;;;;0.17;67.56;95741.38;5072853;28;1024;-48
2022/01/29 06:00:34;;;;;;;;;;;;;;;0.26;67.65;95749.69;5072795;28;1202;-49
2022/01/29 06:03:04;;;;;;;;;;;;;;;0.16;68.71;95750.19;5071638;28;1842;-49
2022/01/29 06:05:30;;;;;;;;;;;;;;;0.23;68.27;95749.84;5072915;28;1056;-48
2022/01/29 06:07:56;;;;;;;;;;;;;;;0.31;67.70;95750.28;5072906;28;1055;-48
2022/01/29 06:10:23;;;;;;;;;;;;;;;0.13;67.62;95753.00;5072800;28;1028;-49
2022/01/29 06:12:59;;;;;;;;;;;;;;;0.07;67.96;95760.34;5072969;28;1914;-48
2022/01/29 06:15:25;;;;;;;;;;;;;;;0.23;67.68;95757.72;5073028;28;1056;-48
2022/01/29 06:17:51;;;;;;;;;;;;;;;0.44;67.08;95758.34;5071744;28;986;-49
2022/01/29 06:20:17;;;;;;;;;;;;;;;0.39;67.95;95764.69;5072909;28;981;-48
2022/01/29 06:22:43;;;;;;;;;;;;;;;0.39;67.79;95763.88;5072647;28;1053;-48
2022/01/29 06:25:09;;;;;;;;;;;;;;;0.51;67.26;95778.13;5074722;28;973;-48
2022/01/29 06:27:35;;;;;;;;;;;;;;;0.48;67.33;95773.88;5076111;28;1041;-49
2022/01/29 06:30:01;;;;;;;;;;;;;;;0.38;67.74;95791.13;5076614;28;1017;-49
2022/01/29 06:32:27;;;;;;;;;;;;;;;0.42;67.71;95790.00;5076181;28;1910;-49
2022/01/29 06:34:53;;;;;;;;;;;;;;;0.48;67.90;95788.84;5076174;28;1037;-48
2022/01/29 06:37:19;;;;;;;;;;;;;;;0.56;68.02;95800.63;5076438;28;1166;-49
2022/01/29 06:39:45;;;;;;;;;;;;;;;0.56;67.75;95803.25;5070425;28;1535;-48
2022/01/29 06:42:11;;;;;;;;;;;;;;;0.65;67.40;95798.44;5073222;28;1380;-49
2022/01/29 06:44:37;;;;;;;;;;;;;;;0.82;66.84;95802.75;5059098;28;1423;-49
2022/01/29 06:47:04;;;;;;;;;;;;;;;0.78;67.76;95804.72;5071694;28;1724;-49
2022/01/29 06:49:31;;;;;;;;;;;;;;;0.72;67.83;95807.66;5066300;28;1439;-48
2022/01/29 06:51:57;;;;;;;;;;;;;;;0.82;67.64;95808.88;5074338;28;1399;-48
2022/01/29 06:54:23;;;;;;;;;;;;;;;0.94;67.00;95812.59;5069407;28;2005;-49
2022/01/29 06:56:49;;;;;;;;;;;;;;;1.05;67.48;95809.34;5071706;28;1374;-48
2022/01/29 06:59:15;;;;;;;;;;;;;;;1.09;67.53;95808.25;5071977;28;1460;-49
2022/01/29 07:01:41;;;;;;;;;;;;;;;1.24;66.42;95810.00;5067301;28;1430;-49
2022/01/29 07:04:07;;;;;;;;;;;;;;;1.29;66.77;95813.22;5073967;28;1346;-49
2022/01/29 07:06:33;;;;;;;;;;;;;;;1.27;66.98;95815.09;5075943;28;1350;-49
2022/01/29 07:08:59;;;;;;;;;;;;;;;1.36;66.29;95821.59;5075569;28;1055;-49
2022/01/29 07:11:25;;;;;;;;;;;;;;;1.25;68.20;95824.00;5075523;28;1879;-49
2022/01/29 07:14:00;;;;;;;;;;;;;;;1.18;67.87;95823.53;5075643;28;1969;-49
2022/01/29 07:16:27;;;;;;;;;;;;;;;1.27;67.97;95820.38;5075730;28;1088;-49
2022/01/29 07:18:53;;;;;;;;;;;;;;;1.31;67.78;95832.44;5075458;28;1018;-49
2022/01/29 07:21:19;;;;;;;;;;;;;;;1.34;67.62;95824.31;5075385;28;1116;-49
2022/01/29 07:23:45;;;;;;;;;;;;;;;1.48;67.38;95833.22;5075540;28;1010;-49
2022/01/29 07:26:11;;;;;;;;;;;;;;;1.31;68.94;95831.56;5075204;28;1186;-49
2022/01/29 07:28:39;;;;;;;;;;;;;;;1.16;68.32;95823.59;5075164;28;1052;-49
2022/01/29 07:31:05;;;;;;;;;;;;;;;1.31;67.83;95823.66;5075476;28;1041;-49
2022/01/29 07:33:31;;;;;;;;;;;;;;;1.40;68.29;95831.03;5074911;28;1934;-48
2022/01/29 07:35:57;;;;;;;;;;;;;;;1.52;67.64;95825.06;5074766;28;1146;-49
2022/01/29 07:38:23;;;;;;;;;;;;;;;1.57;67.22;95822.16;5074952;28;1038;-49
2022/01/29 07:40:50;;;;;;;;;;;;;;;1.67;67.56;95825.97;5075197;28;1032;-49
2022/01/29 07:43:16;;;;;;;;;;;;;;;1.72;66.95;95815.97;5075249;28;1068;-49
2022/01/29 07:45:42;;;;;;;;;;;;;;;1.83;65.97;95822.41;5074906;28;1533;-49
2022/01/29 07:48:08;;;;;;;;;;;;;;;1.73;67.05;95828.22;5074844;28;1056;-49
2022/01/29 07:50:34;;;;;;;;;;;;;;;1.47;67.32;95836.81;5074708;28;1095;-48
2022/01/29 07:53:00;;;;;;;;;;;;;;;1.41;67.69;95829.25;5074038;28;1934;-49
2022/01/29 07:55:26;;;;;;;;;;;;;;;1.52;67.19;95826.84;5067720;28;1455;-49
2022/01/29 07:57:52;;;;;;;;;;;;;;;1.57;67.39;95830.06;5069826;28;1387;-49
2022/01/29 08:00:18;;;;;;;;;;;;;;;1.64;66.61;95827.91;5065576;28;1814;-49
2022/01/29 08:02:44;;;;;;;;;;;;;;;1.61;66.53;95821.03;5072305;28;1279;-49
2022/01/29 08:05:10;;;;;;;;;;;;;;;1.68;66.89;95824.16;5074358;28;1097;-49
2022/01/29 08:07:38;;;;;;;;;;;;;;;1.92;66.54;95820.06;5074811;28;1220;-49
2022/01/29 08:10:04;;;;;;;;;;;;;;;2.24;64.87;95819.03;5074354;28;1042;-49
2022/01/29 08:12:31;;;;;;;;;;;;;;;2.48;64.42;95821.97;5074316;28;1918;-49
2022/01/29 08:14:57;;;;;;;;;;;;;;;2.77;63.77;95819.28;5074461;28;997;-49
2022/01/29 08:17:23;;;;;;;;;;;;;;;3.15;62.87;95822.13;5074168;28;1061;-49
2022/01/29 08:19:49;;;;;;;;;;;;;;;3.47;61.45;95824.44;5074109;28;1034;-48
2022/01/29 08:22:16;;;;;;;;;;;;;;;3.65;61.31;95823.22;5074163;28;1040;-51
2022/01/29 08:24:42;;;;;;;;;;;;;;;3.63;60.88;95829.59;5069229;28;1435;-48
2022/01/29 08:27:08;;;;;;;;;;;;;;;3.87;59.96;95827.94;5071105;28;1510;-49
2022/01/29 08:29:34;;;;;;;;;;;;;;;4.59;57.67;95827.44;5073951;28;1328;-49
2022/01/29 08:32:00;;;;;;;;;;;;;;;5.68;55.47;95819.50;5074328;28;1056;-49
2022/01/29 08:34:27;;;;;;;;;;;;;;;6.70;50.37;95825.06;5073710;28;1906;-49
2022/01/29 08:36:53;;;;;;;;;;;;;;;6.61;51.38;95826.63;5074021;28;1242;-51
2022/01/29 08:39:19;;;;;;;;;;;;;;;6.04;51.93;95831.00;5074025;28;937;-49
2022/01/29 08:41:45;;;;;;;;;;;;;;;5.96;51.83;95830.75;5073528;28;1176;-49
2022/01/29 08:44:11;;;;;;;;;;;;;;;6.00;51.81;95832.19;5074026;28;974;-49
2022/01/29 08:46:37;;;;;;;;;;;;;;;6.18;51.28;95829.94;5073322;28;968;-49
2022/01/29 08:49:03;;;;;;;;;;;;;;;7.73;47.43;95835.38;5073751;28;997;-49
2022/01/29 08:51:29;;;;;;;;;;;;;;;8.00;46.38;95839.38;5073687;28;998;-49
2022/01/29 08:53:55;;;;;;;;;;;;;;;8.56;44.92;95840.91;5072307;28;1964;-49
2022/01/29 08:56:21;;;;;;;;;;;;;;;9.67;42.23;95840.00;5073333;28;1041;-49
2022/01/29 08:58:47;;;;;;;;;;;;;;;9.31;43.08;95844.16;5073497;28;1055;-49
2022/01/29 09:01:13;;;;;;;;;;;;;;;8.87;43.35;95848.91;5073288;28;1306;-49
2022/01/29 09:03:40;;;;;;;;;;;;;;;8.59;43.47;95846.81;5073529;28;1048;-52
2022/01/29 09:06:06;;;;;;;;;;;;;;;11.17;40.28;95847.56;5073532;28;1060;-49
2022/01/29 09:08:32;;;;;;;;;;;;;;;10.55;40.56;95843.53;5073578;28;1856;-49
2022/01/29 09:10:59;;;;;;;;;;;;;;;8.52;43.82;95850.16;5073522;28;1225;-48
2022/01/29 09:13:25;;;;;;;;;;;;;;;7.15;47.57;95850.75;5073270;28;1988;-49
2022/01/29 09:15:51;;;;;;;;;;;;;;;6.04;49.57;95852.22;5071157;28;1384;-48
2022/01/29 09:18:17;;;;;;;;;;;;;;;5.34;51.37;95857.44;5070386;28;2029;-49
2022/01/29 09:20:43;;;;;;;;;;;;;;;5.08;53.23;95857.50;5070754;28;1452;-48
2022/01/29 09:23:09;;;;;;;;;;;;;;;5.05;52.28;95855.94;5071927;28;1137;-48
2022/01/29 09:25:36;;;;;;;;;;;;;;;4.91;52.88;95855.22;5073289;28;972;-49
2022/01/29 09:28:05;;;;;;;;;;;;;;;4.92;53.45;95856.94;5072946;28;1366;-49
2022/01/29 09:30:32;;;;;;;;;;;;;;;4.84;52.75;95858.31;5070829;28;1373;-49
2022/01/29 09:40:50;;;;;;;;;;;;;;;5.77;50.40;95839.22;5977254;22;5035;-52
2022/01/29 09:43:17;;;;;;;;;;;;;;;5.81;50.66;95845.97;4971542;28;2383;-47
2022/01/29 09:45:43;;;;;;;;;;;;;;;8.42;45.73;95844.72;4973454;28;1274;-47
2022/01/29 09:48:09;;;;;;;;;;;;;;;9.46;41.44;95839.28;4971590;28;1409;-46
2022/01/29 09:50:37;;;;;;;;;;;;;;;7.82;44.73;95839.09;4972036;28;1078;-47
2022/01/29 09:53:03;;;;;;;;;;;;;;;8.06;45.15;95843.34;4974029;28;1980;-47
2022/01/29 09:55:30;;;;;;;;;;;;;;;7.45;44.19;95842.09;4974518;28;1439;-47
2022/01/29 09:57:56;;;;;;;;;;;;;;;6.63;46.43;95837.13;4974441;28;966;-47
2022/01/29 10:00:23;;;;;;;;;;;;;;;5.90;48.45;95836.50;4973840;28;1532;-47
2022/01/29 10:03:08;;;;;;;;;;;;;;;5.44;50.07;95832.81;4975807;28;1489;-47
2022/01/29 10:05:35;;;;;;;;;;;;;;;5.13;50.23;95839.47;4976651;28;1693;-47
2022/01/29 10:08:01;;;;;;;;;;;;;;;5.07;50.82;95829.34;4977763;28;1857;-47
2022/01/29 10:10:27;;;;;;;;;;;;;;;5.12;50.81;95835.13;4978060;28;979;-47
2022/01/29 10:12:53;;;;;;;;;;;;;;;4.85;51.01;95827.38;4975062;28;1927;-47
2022/01/29 10:15:21;;;;;;;;;;;;;;;4.77;51.65;95819.97;4975759;28;1481;-46
2022/01/29 10:17:51;;;;;;;;;;;;;;;4.78;51.96;95832.28;4976493;28;1192;-45
2022/01/29 10:20:25;;;;;;;;;;;;;;;4.69;51.65;95824.97;4977855;28;982;-46
2022/01/29 10:22:51;;;;;;;;;;;;;;;4.39;51.84;95834.09;4977455;28;961;-47
2022/01/29 10:25:22;;;;;;;;;;;;;;;4.31;52.19;95825.84;4977948;28;995;-47
2022/01/29 10:28:06;;;;;;;;;;;;;;;4.23;51.54;95836.09;4977375;28;1104;-46
2022/01/29 10:30:35;;;;;;;;;;;;;;;4.11;52.60;95836.00;4977647;28;980;-46
2022/01/29 10:33:19;;;;;;;;;;;;;;;4.11;52.64;95828.06;4977115;28;1902;-46
2022/01/29 10:35:47;;;;;;;;;;;;;;;4.20;52.72;95828.38;4977362;28;1038;-52
2022/01/29 10:38:13;;;;;;;;;;;;;;;4.24;52.47;95828.06;4977196;28;974;-48
2022/01/29 10:40:39;;;;;;;;;;;;;;;4.26;52.53;95836.75;4977539;28;1036;-49
2022/01/29 10:43:05;;;;;;;;;;;;;;;4.17;53.00;95831.25;5013392;28;1102;-50
2022/01/29 10:45:33;;;;;;;;;;;;;;;4.16;53.03;95826.91;5016357;28;1069;-49
2022/01/29 10:47:59;;;;;;;;;;;;;;;4.15;53.04;95830.50;5015869;28;989;-49
2022/01/29 10:50:26;;;;;;;;;;;;;;;4.19;53.38;95829.34;5015567;28;1329;-49
2022/01/29 10:52:52;;;;;;;;;;;;;;;4.28;53.07;95826.06;5016222;28;1910;-49
2022/01/29 10:55:18;;;;;;;;;;;;;;;4.29;53.50;95825.13;5013750;28;1426;-50
2022/01/29 10:57:46;;;;;;;;;;;;;;;4.30;53.16;95834.72;5015270;28;1552;-49
2022/01/29 11:00:23;;;;;;;;;;;;;;;4.44;53.13;95836.41;5015984;28;1373;-50
2022/01/29 11:02:49;;;;;;;;;;;;;;;4.56;52.97;95840.88;5014277;28;1892;-49
2022/01/29 11:05:18;;;;;;;;;;;;;;;4.50;52.78;95841.31;5014624;28;1408;-49
2022/01/29 11:07:51;;;;;;;;;;;;;;;4.43;52.26;95840.03;5016053;28;1293;-49
2022/01/29 11:10:18;;;;;;;;;;;;;;;4.55;51.72;95828.56;5015176;28;1046;-49
2022/01/29 11:12:45;;;;;;;;;;;;;;;4.68;51.48;95829.41;5015668;28;2011;-49
2022/01/29 11:15:12;;;;;;;;;;;;;;;4.63;51.61;95833.31;5015321;28;1881;-49
2022/01/29 11:17:38;;;;;;;;;;;;;;;4.67;51.29;95826.88;5015450;28;967;-49
2022/01/29 11:20:05;;;;;;;;;;;;;;;4.80;50.88;95826.84;5015030;28;1097;-50
2022/01/29 11:22:35;;;;;;;;;;;;;;;4.98;50.75;95822.88;5013834;28;1458;-57
2022/01/29 11:25:03;;;;;;;;;;;;;;;4.94;50.64;95825.88;4997054;28;1403;-50
2022/01/29 11:27:30;;;;;;;;;;;;;;;4.77;51.06;95819.13;5014199;28;1375;-51
2022/01/29 11:30:00;;;;;;;;;;;;;;;4.56;51.85;95817.03;4995833;28;1422;-52
2022/01/29 11:32:27;;;;;;;;;;;;;;;4.49;52.16;95832.50;5014146;28;2854;-51
2022/01/29 11:35:00;;;;;;;;;;;;;;;4.50;52.14;95823.59;5013410;28;1985;-51
2022/01/29 11:37:38;;;;;;;;;;;;;;;4.51;52.63;95827.09;5013668;28;1389;-51
2022/01/29 11:40:15;;;;;;;;;;;;;;;4.51;52.99;95827.09;5015147;28;1065;-51
2022/01/29 11:42:51;;;;;;;;;;;;;;;4.49;52.89;95832.50;5014988;28;1246;-51
2022/01/29 11:45:36;;;;;;;;;;;;;;;4.30;53.37;95824.16;5015140;28;1147;-51
2022/01/29 11:48:02;;;;;;;;;;;;;;;4.25;53.49;95826.25;5013152;28;1438;-51
2022/01/29 11:50:28;;;;;;;;;;;;;;;4.22;53.47;95822.03;5013908;28;1274;-51
2022/01/29 11:52:54;;;;;;;;;;;;;;;4.20;54.20;95820.44;5014987;28;1985;-51
2022/01/29 11:55:33;;;;;;;;;;;;;;;4.15;54.42;95822.56;5014911;28;1267;-51
2022/01/29 11:58:17;;;;;;;;;;;;;;;4.26;53.34;95814.72;5014499;28;1038;-52
2022/01/29 12:00:45;;;;;;;;;;;;;;;4.39;52.68;95812.09;5014946;28;1233;-51
2022/01/29 12:03:30;;;;;;;;;;;;;;;4.39;52.85;95817.38;5014911;28;1018;-51
2022/01/29 12:06:09;;;;;;;;;;;;;;;4.53;52.41;95821.69;5014849;28;971;-50
2022/01/29 12:08:41;;;;;;;;;;;;;;;4.56;51.29;95809.09;5014022;28;1440;-50
2022/01/29 12:11:11;;;;;;;;;;;;;;;4.63;51.75;95820.09;5014665;28;990;-51
2022/01/29 12:13:38;;;;;;;;;;;;;;;4.85;50.92;95814.13;5014443;28;1979;-51
2022/01/29 12:16:05;;;;;;;;;;;;;;;4.82;50.77;95804.59;5014435;28;1100;-51
2022/01/29 12:18:33;;;;;;;;;;;;;;;4.81;51.01;95807.34;5012761;28;1421;-51
2022/01/29 12:21:00;;;;;;;;;;;;;;;4.79;51.16;95811.91;5013587;28;1389;-51
2022/01/29 12:23:26;;;;;;;;;;;;;;;4.69;51.07;95811.72;5013752;28;1054;-51
2022/01/29 12:25:54;;;;;;;;;;;;;;;4.71;50.88;95803.69;5014357;28;1355;-51
2022/01/29 12:28:20;;;;;;;;;;;;;;;4.58;51.76;95812.47;5014528;28;1041;-51
2022/01/29 12:30:46;;;;;;;;;;;;;;;4.48;51.71;95809.63;4997034;28;963;-50
2022/01/29 12:33:13;;;;;;;;;;;;;;;4.36;52.70;95807.00;5014657;28;1910;-50
2022/01/29 12:35:42;;;;;;;;;;;;;;;4.40;52.49;95805.81;5014328;28;1026;-49
2022/01/29 12:38:18;;;;;;;;;;;;;;;4.27;53.28;95805.84;5004219;28;1305;-50
2022/01/29 12:41:11;;;;;;;;;;;;;;;4.25;53.24;95810.38;4994481;28;989;-50
2022/01/29 12:43:52;;;;;;;;;;;;;;;4.37;52.64;95806.88;4991266;28;1709;-50
2022/01/29 12:46:19;;;;;;;;;;;;;;;4.30;52.28;95803.81;4994384;28;1057;-49
2022/01/29 12:49:02;;;;;;;;;;;;;;;4.14;52.73;95805.00;4994547;28;1062;-50
2022/01/29 12:51:29;;;;;;;;;;;;;;;4.13;52.99;95806.78;5011360;28;1147;-51
2022/01/29 12:53:56;;;;;;;;;;;;;;;4.09;52.84;95813.25;5014000;28;1891;-50
2022/01/29 12:56:29;;;;;;;;;;;;;;;3.88;53.97;95812.91;5013982;28;1026;-50
2022/01/29 12:58:55;;;;;;;;;;;;;;;3.93;54.32;95818.75;5013321;28;1420;-50
2022/01/29 13:01:23;;;;;;;;;;;;;;;3.98;54.74;95818.41;5013670;28;1198;-57
2022/01/29 13:03:49;;;;;;;;;;;;;;;4.00;54.95;95821.81;5013747;28;1338;-50
2022/01/29 13:06:16;;;;;;;;;;;;;;;4.19;54.64;95822.25;5014096;28;993;-49
2022/01/29 13:08:42;;;;;;;;;;;;;;;4.32;53.96;95819.59;5014121;28;1058;-50
2022/01/29 13:11:25;;;;;;;;;;;;;;;4.32;53.51;95819.59;5013841;28;990;-50
2022/01/29 13:13:51;;;;;;;;;;;;;;;4.43;53.00;95814.41;5013417;28;1979;-51
2022/01/29 13:16:17;;;;;;;;;;;;;;;4.46;53.13;95818.66;5010844;28;1268;-49
2022/01/29 13:18:44;;;;;;;;;;;;;;;4.64;52.84;95808.53;4994175;28;1981;-50
2022/01/29 13:21:10;;;;;;;;;;;;;;;4.75;52.42;95811.28;4993942;28;1101;-50
2022/01/29 13:23:37;;;;;;;;;;;;;;;4.78;52.62;95819.03;4977005;28;1047;-50
2022/01/29 13:26:16;;;;;;;;;;;;;;;4.79;51.83;95804.81;4993779;28;1596;-50
2022/01/29 13:28:47;;;;;;;;;;;;;;;4.74;51.79;95806.09;4994090;28;1071;-51
2022/01/29 13:31:13;;;;;;;;;;;;;;;4.78;51.53;95802.25;4993756;28;1058;-50
2022/01/29 13:33:39;;;;;;;;;;;;;;;4.78;50.79;95796.97;4993497;28;1992;-51
2022/01/29 13:36:05;;;;;;;;;;;;;;;4.95;50.48;95814.28;5002431;28;3627;-50